Time;durP1;ratioP1;P1;durP2;ratioP2;P2;SDS_P1;SDS_P2;PMS_P1;PMS_P2;Temp;Humidity;BMP_temperature;BMP_pressure;BME280_temperature;BME280_humidity;BME280_pressure;Samples;Min_cycle;Max_cycle;Signal;HPM_P1;HPM_P2
2023/10/31 00:01:46;;;;;;;;;;;;;;;12.44;80.15;99585.28;5012742;28;19945;-72
2023/10/31 00:04:11;;;;;;;;;;;;;;;12.53;79.45;99580.41;5026209;28;19924;-73
2023/10/31 00:06:37;;;;;;;;;;;;;;;12.38;80.15;99583.88;5025083;28;19925;-73
2023/10/31 00:09:02;;;;;;;;;;;;;;;12.43;79.75;99580.84;5031471;28;20300;-72
2023/10/31 00:11:27;;;;;;;;;;;;;;;11.88;81.92;99587.22;5027231;28;19925;-73
2023/10/31 00:13:53;;;;;;;;;;;;;;;12.07;81.52;99588.75;5011638;28;19921;-72
2023/10/31 00:16:18;;;;;;;;;;;;;;;11.99;81.27;99584.00;5011667;28;19914;-72
2023/10/31 00:18:43;;;;;;;;;;;;;;;12.06;81.16;99578.69;5025493;28;20289;-72
2023/10/31 00:21:08;;;;;;;;;;;;;;;11.83;82.22;99581.81;5028352;28;19952;-72
2023/10/31 00:23:34;;;;;;;;;;;;;;;11.71;82.71;99574.13;5030030;28;19913;-72
2023/10/31 00:25:59;;;;;;;;;;;;;;;11.48;83.89;99577.25;5029610;28;19925;-72
2023/10/31 00:28:24;;;;;;;;;;;;;;;11.48;83.94;99576.44;5031355;28;19913;-72
2023/10/31 00:30:50;;;;;;;;;;;;;;;11.52;84.22;99575.44;5028690;28;20032;-72
2023/10/31 00:33:15;;;;;;;;;;;;;;;11.40;84.03;99568.91;5029837;28;19917;-72
2023/10/31 00:35:40;;;;;;;;;;;;;;;11.22;84.14;99575.41;5031173;28;20403;-72
2023/10/31 00:38:05;;;;;;;;;;;;;;;11.16;85.11;99567.53;5031103;28;19917;-72
2023/10/31 00:40:31;;;;;;;;;;;;;;;11.07;85.55;99573.19;5031226;28;20004;-72
2023/10/31 00:42:58;;;;;;;;;;;;;;;11.11;85.55;99578.94;5030960;28;19917;-72
2023/10/31 00:45:23;;;;;;;;;;;;;;;10.89;87.29;99569.63;5029041;28;19917;-72
2023/10/31 00:47:48;;;;;;;;;;;;;;;10.93;87.21;99574.22;5031113;28;19913;-72
2023/10/31 00:50:14;;;;;;;;;;;;;;;10.66;88.78;99564.28;5030157;28;20429;-72
2023/10/31 00:52:39;;;;;;;;;;;;;;;10.60;88.90;99563.63;5029823;28;19913;-72
2023/10/31 00:55:04;;;;;;;;;;;;;;;10.64;88.67;99561.81;5030804;28;20008;-72
2023/10/31 00:57:30;;;;;;;;;;;;;;;10.58;89.42;99556.72;5031725;28;20281;-72
2023/10/31 00:59:55;;;;;;;;;;;;;;;10.47;89.92;99550.66;5024402;28;19921;-73
2023/10/31 01:02:20;;;;;;;;;;;;;;;10.33;90.72;99562.84;5014725;28;19920;-72
2023/10/31 01:04:46;;;;;;;;;;;;;;;10.33;90.54;99556.41;5027761;28;19988;-72
2023/10/31 01:07:14;;;;;;;;;;;;;;;10.39;91.23;99557.91;5034253;28;19975;-72
2023/10/31 01:09:39;;;;;;;;;;;;;;;10.40;90.83;99557.53;5034398;28;20390;-73
2023/10/31 01:12:05;;;;;;;;;;;;;;;10.68;89.93;99556.38;5034339;28;19955;-73
2023/10/31 01:14:30;;;;;;;;;;;;;;;10.91;88.19;99550.53;5032949;28;19924;-73
2023/10/31 01:16:55;;;;;;;;;;;;;;;10.87;87.08;99555.16;5021060;28;19956;-72
2023/10/31 01:19:21;;;;;;;;;;;;;;;10.88;87.17;99556.81;5032850;28;19971;-73
2023/10/31 01:21:46;;;;;;;;;;;;;;;10.82;86.73;99556.16;5034167;28;19913;-72
2023/10/31 01:24:11;;;;;;;;;;;;;;;10.64;87.18;99549.81;5034101;28;19949;-72
2023/10/31 01:26:37;;;;;;;;;;;;;;;10.64;86.83;99555.41;5029066;28;19922;-72
2023/10/31 01:29:02;;;;;;;;;;;;;;;10.42;88.42;99543.28;5033076;28;20380;-72
2023/10/31 01:31:28;;;;;;;;;;;;;;;10.28;89.29;99545.41;5032057;28;19924;-72
2023/10/31 01:33:53;;;;;;;;;;;;;;;10.36;89.13;99533.38;5033858;28;20402;-72
2023/10/31 01:36:18;;;;;;;;;;;;;;;10.54;87.36;99539.78;5033822;28;19913;-72
2023/10/31 01:38:46;;;;;;;;;;;;;;;10.30;88.23;99541.09;5033982;28;19913;-72
2023/10/31 01:41:11;;;;;;;;;;;;;;;10.38;87.68;99545.06;5047919;28;19931;-72
2023/10/31 01:43:37;;;;;;;;;;;;;;;10.37;87.77;99533.06;5032539;28;19996;-72
2023/10/31 01:46:03;;;;;;;;;;;;;;;10.48;86.31;99541.13;5033551;28;19917;-72
2023/10/31 01:48:32;;;;;;;;;;;;;;;10.20;87.12;99539.50;5031191;28;20307;-72
2023/10/31 01:50:58;;;;;;;;;;;;;;;10.42;85.82;99532.09;5048802;28;19939;-72
2023/10/31 01:53:27;;;;;;;;;;;;;;;10.15;86.72;99534.09;5012147;28;20567;-73
2023/10/31 01:55:55;;;;;;;;;;;;;;;10.15;86.33;99534.09;5014369;28;19957;-72
2023/10/31 01:58:23;;;;;;;;;;;;;;;10.10;87.68;99534.25;5012466;28;19917;-72
2023/10/31 02:00:49;;;;;;;;;;;;;;;10.24;86.76;99536.88;5013541;28;19921;-72
2023/10/31 02:03:14;;;;;;;;;;;;;;;10.13;88.02;99530.78;5014206;28;19968;-72
2023/10/31 02:05:40;;;;;;;;;;;;;;;9.93;92.18;99526.69;5019841;28;19925;-73
2023/10/31 02:08:08;;;;;;;;;;;;;;;10.03;91.89;99528.34;5012856;28;20265;-72
2023/10/31 02:10:33;;;;;;;;;;;;;;;9.91;92.79;99529.81;5014068;28;19963;-72
2023/10/31 02:12:58;;;;;;;;;;;;;;;9.88;93.32;99524.88;5029475;28;19920;-73
2023/10/31 02:15:24;;;;;;;;;;;;;;;9.86;93.77;99523.59;5032908;28;20392;-72
2023/10/31 02:17:49;;;;;;;;;;;;;;;9.85;93.50;99525.53;5033019;28;19913;-73
2023/10/31 02:20:14;;;;;;;;;;;;;;;9.77;93.83;99523.56;5033051;28;20008;-72
2023/10/31 02:22:39;;;;;;;;;;;;;;;9.52;95.52;99512.03;5016642;28;19917;-72
2023/10/31 02:25:16;;;;;;;;;;;;;;;9.54;96.35;99537.69;5013064;28;19924;-72
2023/10/31 02:27:41;;;;;;;;;;;;;;;9.54;95.47;99526.53;5014527;28;19973;-72
2023/10/31 02:30:06;;;;;;;;;;;;;;;9.48;96.16;99528.66;5032523;28;19927;-72
2023/10/31 02:32:32;;;;;;;;;;;;;;;9.46;96.07;99542.09;5017922;28;19924;-72
2023/10/31 02:34:57;;;;;;;;;;;;;;;9.40;97.78;99529.44;5012910;28;20317;-72
2023/10/31 02:37:22;;;;;;;;;;;;;;;9.52;96.93;99534.38;5011230;28;19945;-72
2023/10/31 02:39:47;;;;;;;;;;;;;;;9.60;96.92;99525.19;5013812;28;20366;-72
2023/10/31 02:42:13;;;;;;;;;;;;;;;9.54;98.03;99532.13;5023558;28;19917;-72
2023/10/31 02:44:38;;;;;;;;;;;;;;;9.51;97.93;99532.75;5032462;28;20432;-72
2023/10/31 02:47:03;;;;;;;;;;;;;;;9.47;97.18;99538.19;5020612;28;19926;-72
2023/10/31 02:49:29;;;;;;;;;;;;;;;9.54;98.08;99537.69;5012585;28;20388;-73
2023/10/31 02:51:54;;;;;;;;;;;;;;;9.44;96.85;99529.63;5020415;28;19949;-72
2023/10/31 02:54:19;;;;;;;;;;;;;;;9.58;97.86;99533.09;5031204;28;20354;-72
2023/10/31 02:56:45;;;;;;;;;;;;;;;9.77;95.83;99529.16;5030646;28;20372;-73
2023/10/31 02:59:10;;;;;;;;;;;;;;;9.42;96.46;99541.09;5025629;28;19917;-72
2023/10/31 03:01:36;;;;;;;;;;;;;;;9.40;96.90;99549.00;5012147;28;20365;-72
2023/10/31 03:04:01;;;;;;;;;;;;;;;9.32;97.44;99535.81;5011526;28;19917;-72
2023/10/31 03:06:26;;;;;;;;;;;;;;;9.26;98.00;99543.53;5012224;28;19928;-72
2023/10/31 03:08:52;;;;;;;;;;;;;;;9.21;97.78;99544.50;5012503;28;19943;-72
2023/10/31 03:11:23;;;;;;;;;;;;;;;9.08;98.92;99546.28;5018716;28;20392;-72
2023/10/31 03:13:49;;;;;;;;;;;;;;;9.07;98.29;99539.06;5012355;28;20012;-72
2023/10/31 03:16:15;;;;;;;;;;;;;;;9.03;99.25;99540.03;5029191;28;20004;-72
2023/10/31 03:18:40;;;;;;;;;;;;;;;9.09;98.88;99541.50;5012365;28;19924;-73
2023/10/31 03:21:05;;;;;;;;;;;;;;;9.13;98.26;99534.16;5011507;28;20284;-73
2023/10/31 03:23:30;;;;;;;;;;;;;;;8.97;100.00;99536.56;5011008;28;20026;-73
2023/10/31 03:25:56;;;;;;;;;;;;;;;9.00;100.00;99541.50;5018511;28;19939;-72
2023/10/31 03:28:24;;;;;;;;;;;;;;;9.00;100.00;99541.50;5018505;28;20307;-72
2023/10/31 03:30:50;;;;;;;;;;;;;;;8.89;100.00;99540.13;5029170;28;19917;-72
2023/10/31 03:33:16;;;;;;;;;;;;;;;8.86;100.00;99541.59;5012166;28;19921;-72
2023/10/31 03:35:41;;;;;;;;;;;;;;;9.04;100.00;99545.28;5012049;28;19917;-72
2023/10/31 03:38:07;;;;;;;;;;;;;;;9.08;100.00;99542.66;5017659;28;20008;-72
2023/10/31 03:40:32;;;;;;;;;;;;;;;9.15;99.01;99547.75;5031654;28;20418;-73
2023/10/31 03:42:57;;;;;;;;;;;;;;;8.93;100.00;99539.16;5012628;28;19917;-72
2023/10/31 03:45:23;;;;;;;;;;;;;;;8.78;100.00;99543.19;5018097;28;19921;-72
2023/10/31 03:47:48;;;;;;;;;;;;;;;8.98;99.83;99538.19;5015512;28;19990;-72
2023/10/31 03:50:13;;;;;;;;;;;;;;;8.90;100.00;99536.19;5031431;28;19921;-72
2023/10/31 03:52:38;;;;;;;;;;;;;;;8.87;100.00;99539.63;5029731;28;19924;-72
2023/10/31 03:55:04;;;;;;;;;;;;;;;8.69;100.00;99543.16;5046954;28;19920;-72
2023/10/31 03:57:29;;;;;;;;;;;;;;;8.76;100.00;99537.13;5016395;28;19976;-72
2023/10/31 03:59:54;;;;;;;;;;;;;;;8.84;100.00;99533.56;5018459;28;19918;-72
2023/10/31 04:02:20;;;;;;;;;;;;;;;8.84;100.00;99530.78;5017315;28;19917;-72
2023/10/31 04:04:45;;;;;;;;;;;;;;;9.09;99.75;99541.50;5011838;28;20408;-73
2023/10/31 04:07:10;;;;;;;;;;;;;;;8.99;99.98;99545.44;5011416;28;19922;-73
2023/10/31 04:09:36;;;;;;;;;;;;;;;8.89;100.00;99540.13;5010747;28;20403;-73
2023/10/31 04:12:01;;;;;;;;;;;;;;;8.76;100.00;99537.13;5020574;28;19917;-73
2023/10/31 04:14:26;;;;;;;;;;;;;;;8.81;100.00;99537.00;5012654;28;20385;-73
2023/10/31 04:16:51;;;;;;;;;;;;;;;8.77;99.01;99535.97;5011160;28;19921;-73
2023/10/31 04:19:17;;;;;;;;;;;;;;;8.88;99.14;99530.97;5011771;28;20396;-73
2023/10/31 04:21:42;;;;;;;;;;;;;;;9.03;98.03;99535.25;5013793;28;19914;-72
2023/10/31 04:24:07;;;;;;;;;;;;;;;9.13;97.18;99534.16;5031376;28;19913;-73
2023/10/31 04:26:33;;;;;;;;;;;;;;;9.15;96.61;99531.84;5031133;28;19917;-72
2023/10/31 04:28:58;;;;;;;;;;;;;;;9.23;95.67;99527.44;5026687;28;19965;-78
2023/10/31 04:31:24;;;;;;;;;;;;;;;9.24;95.98;99529.09;5025803;28;19917;-76
2023/10/31 04:33:49;;;;;;;;;;;;;;;9.41;94.31;99525.50;5034422;28;19925;-74
2023/10/31 04:36:15;;;;;;;;;;;;;;;9.27;93.37;99520.06;5015203;28;19976;-73
2023/10/31 04:38:40;;;;;;;;;;;;;;;9.52;93.40;99514.84;5015238;28;19957;-74
2023/10/31 04:41:05;;;;;;;;;;;;;;;9.65;92.53;99513.88;5015150;28;19924;-71
2023/10/31 04:43:31;;;;;;;;;;;;;;;9.73;91.96;99512.25;5015717;28;19952;-73
2023/10/31 04:45:56;;;;;;;;;;;;;;;9.57;91.07;99513.88;5034352;28;20388;-73
2023/10/31 04:48:21;;;;;;;;;;;;;;;9.55;91.73;99508.63;5033089;28;19917;-73
2023/10/31 04:50:46;;;;;;;;;;;;;;;9.48;91.43;99511.06;5033049;28;20426;-72
2023/10/31 04:53:12;;;;;;;;;;;;;;;9.60;91.21;99505.66;5034684;28;19913;-72
2023/10/31 04:55:37;;;;;;;;;;;;;;;9.73;90.71;99511.41;5049855;28;19913;-73
2023/10/31 04:58:02;;;;;;;;;;;;;;;9.74;90.58;99510.25;5034279;28;19979;-76
2023/10/31 05:00:28;;;;;;;;;;;;;;;9.45;90.99;99512.53;5034806;28;19917;-76
2023/10/31 05:02:53;;;;;;;;;;;;;;;9.13;92.27;99507.06;5034437;28;19913;-75
2023/10/31 05:05:19;;;;;;;;;;;;;;;9.04;92.73;99508.19;5033316;28;19913;-76
2023/10/31 05:07:44;;;;;;;;;;;;;;;8.97;92.82;99503.09;5029006;28;19929;-76
2023/10/31 05:10:10;;;;;;;;;;;;;;;8.42;96.54;99499.53;5031767;28;19917;-76
2023/10/31 05:12:36;;;;;;;;;;;;;;;8.03;100.00;99501.94;5033136;28;19920;-76
2023/10/31 05:15:01;;;;;;;;;;;;;;;8.15;100.00;99510.53;5017151;28;20365;-76
2023/10/31 05:17:26;;;;;;;;;;;;;;;7.98;100.00;99507.63;5016166;28;19965;-76
2023/10/31 05:19:52;;;;;;;;;;;;;;;7.89;100.00;99515.91;5027411;28;19917;-74
2023/10/31 05:22:17;;;;;;;;;;;;;;;7.87;100.00;99521.78;5027697;28;19932;-74
2023/10/31 05:24:42;;;;;;;;;;;;;;;8.22;100.00;99524.03;5025754;28;19948;-75
2023/10/31 05:27:09;;;;;;;;;;;;;;;8.36;100.00;99523.13;5032761;28;19960;-74
2023/10/31 05:29:34;;;;;;;;;;;;;;;8.60;99.00;99527.53;5014354;28;19965;-74
2023/10/31 05:32:01;;;;;;;;;;;;;;;8.32;97.44;99525.72;5014116;28;19959;-75
2023/10/31 05:34:26;;;;;;;;;;;;;;;8.11;100.00;99528.22;5013322;28;19921;-75
2023/10/31 05:36:51;;;;;;;;;;;;;;;8.21;99.82;99522.38;5014186;28;19913;-75
2023/10/31 05:39:17;;;;;;;;;;;;;;;8.50;100.00;99536.94;5029817;28;19913;-75
2023/10/31 05:41:42;;;;;;;;;;;;;;;8.75;98.08;99541.06;5016064;28;19983;-74
2023/10/31 05:44:07;;;;;;;;;;;;;;;8.56;100.00;99535.72;5012764;28;19914;-74
2023/10/31 05:46:38;;;;;;;;;;;;;;;8.74;99.29;99536.63;5014274;28;19972;-74
2023/10/31 05:49:03;;;;;;;;;;;;;;;9.01;97.56;99537.56;5029612;28;19921;-74
2023/10/31 05:51:29;;;;;;;;;;;;;;;9.40;97.09;99547.00;5032187;28;19975;-74
2023/10/31 05:53:55;;;;;;;;;;;;;;;9.60;94.00;99555.91;5027831;28;20308;-74
2023/10/31 05:56:20;;;;;;;;;;;;;;;9.51;93.15;99555.09;5024855;28;19925;-74
2023/10/31 05:58:45;;;;;;;;;;;;;;;9.22;95.95;99554.50;5021302;28;20396;-74
2023/10/31 06:01:10;;;;;;;;;;;;;;;9.27;97.42;99556.34;5019170;28;19917;-74
2023/10/31 06:03:36;;;;;;;;;;;;;;;9.49;97.16;99562.97;5032039;28;20399;-74
2023/10/31 06:06:01;;;;;;;;;;;;;;;9.78;96.88;99565.16;5031410;28;19959;-74
2023/10/31 06:08:30;;;;;;;;;;;;;;;9.76;95.91;99561.03;5019248;28;19924;-75
2023/10/31 06:10:56;;;;;;;;;;;;;;;9.83;96.58;99565.00;5032595;28;19963;-72
2023/10/31 06:13:21;;;;;;;;;;;;;;;10.05;96.11;99559.56;5020312;28;20424;-72
2023/10/31 06:15:47;;;;;;;;;;;;;;;10.09;96.48;99555.78;5033040;28;19923;-72
2023/10/31 06:18:13;;;;;;;;;;;;;;;10.23;97.07;99560.38;5026516;28;19917;-71
2023/10/31 06:20:39;;;;;;;;;;;;;;;10.33;97.23;99560.03;5021716;28;19917;-71
2023/10/31 06:23:05;;;;;;;;;;;;;;;10.42;96.98;99560.06;5027899;28;19945;-72
2023/10/31 06:25:30;;;;;;;;;;;;;;;10.45;97.17;99558.56;5022452;28;20072;-75
2023/10/31 06:27:55;;;;;;;;;;;;;;;10.62;96.71;99568.91;5023279;28;19925;-74
2023/10/31 06:30:21;;;;;;;;;;;;;;;10.65;96.65;99571.84;5029665;28;20358;-72
2023/10/31 06:32:46;;;;;;;;;;;;;;;10.80;96.66;99573.28;5028746;28;19936;-72
2023/10/31 06:35:11;;;;;;;;;;;;;;;10.89;96.98;99578.03;5017668;28;19921;-72
2023/10/31 06:37:36;;;;;;;;;;;;;;;11.05;96.63;99576.31;5018264;28;19921;-75
2023/10/31 06:40:02;;;;;;;;;;;;;;;11.17;96.00;99577.59;5026797;28;19928;-72
2023/10/31 06:42:28;;;;;;;;;;;;;;;11.29;95.86;99571.28;5024720;28;19955;-71
2023/10/31 06:44:53;;;;;;;;;;;;;;;11.42;95.72;99567.41;5025937;28;20020;-74
2023/10/31 06:47:18;;;;;;;;;;;;;;;11.49;96.16;99569.69;5025199;28;19925;-74
2023/10/31 06:49:44;;;;;;;;;;;;;;;11.75;94.63;99568.69;5027843;28;19925;-73
2023/10/31 06:52:09;;;;;;;;;;;;;;;11.65;95.13;99569.91;5021275;28;19917;-71
2023/10/31 06:54:34;;;;;;;;;;;;;;;11.80;94.42;99562.88;5022866;28;19952;-71
2023/10/31 06:57:01;;;;;;;;;;;;;;;11.86;94.25;99560.69;5024554;28;19974;-71
2023/10/31 06:59:26;;;;;;;;;;;;;;;11.97;92.84;99553.50;5028824;28;19960;-70
2023/10/31 07:01:52;;;;;;;;;;;;;;;12.21;91.67;99552.84;5023886;28;19983;-71
2023/10/31 07:04:18;;;;;;;;;;;;;;;12.23;90.24;99548.88;5022852;28;19918;-73
2023/10/31 07:06:43;;;;;;;;;;;;;;;12.44;88.65;99546.84;5012494;28;19929;-70
2023/10/31 07:09:09;;;;;;;;;;;;;;;12.50;87.52;99553.06;5018772;28;19917;-71
2023/10/31 07:11:35;;;;;;;;;;;;;;;12.57;86.61;99544.06;5020985;28;19921;-69
2023/10/31 07:14:03;;;;;;;;;;;;;;;12.84;85.44;99538.97;5024937;28;19959;-70
2023/10/31 07:16:29;;;;;;;;;;;;;;;12.77;86.06;99531.13;5019393;28;19968;-70
2023/10/31 07:18:54;;;;;;;;;;;;;;;13.11;84.51;99522.59;5021521;28;20355;-69
2023/10/31 07:21:20;;;;;;;;;;;;;;;13.31;83.22;99527.28;5024245;28;19921;-71
2023/10/31 07:23:45;;;;;;;;;;;;;;;13.28;82.62;99533.63;5021203;28;19970;-71
2023/10/31 07:26:10;;;;;;;;;;;;;;;13.55;81.61;99538.88;5017283;28;19979;-70
2023/10/31 07:28:36;;;;;;;;;;;;;;;13.72;80.21;99543.41;5021150;28;19921;-70
2023/10/31 07:31:01;;;;;;;;;;;;;;;13.96;79.30;99530.47;5023143;28;20021;-70
2023/10/31 07:33:26;;;;;;;;;;;;;;;14.00;78.40;99534.22;5037177;28;19928;-70
2023/10/31 07:35:52;;;;;;;;;;;;;;;14.06;78.50;99524.34;5029658;28;19917;-70
2023/10/31 07:38:17;;;;;;;;;;;;;;;14.15;77.54;99519.38;5025096;28;19924;-71
2023/10/31 07:40:43;;;;;;;;;;;;;;;14.26;77.47;99510.44;5026046;28;19923;-70
2023/10/31 07:43:08;;;;;;;;;;;;;;;14.38;76.64;99504.75;5018354;28;19967;-70
2023/10/31 07:45:33;;;;;;;;;;;;;;;14.81;75.02;99507.06;5017005;28;20393;-70
2023/10/31 07:47:59;;;;;;;;;;;;;;;14.76;74.54;99504.53;5024581;28;19969;-69
2023/10/31 07:50:24;;;;;;;;;;;;;;;14.90;74.44;99504.06;5012619;28;20502;-70
2023/10/31 07:52:49;;;;;;;;;;;;;;;14.82;73.75;99501.09;5025068;28;19917;-70
2023/10/31 07:55:14;;;;;;;;;;;;;;;14.98;72.37;99497.44;5014534;28;19917;-70
2023/10/31 07:57:40;;;;;;;;;;;;;;;15.14;71.85;99492.63;5030076;28;19925;-70
2023/10/31 08:00:10;;;;;;;;;;;;;;;15.41;70.82;99492.00;5027250;28;19913;-70
2023/10/31 08:02:35;;;;;;;;;;;;;;;15.25;71.91;99492.88;5020715;28;20304;-70
2023/10/31 08:05:01;;;;;;;;;;;;;;;15.46;73.24;99488.94;5016146;28;19929;-69
2023/10/31 08:07:29;;;;;;;;;;;;;;;15.58;73.14;99485.97;5024417;28;19925;-68
2023/10/31 08:09:55;;;;;;;;;;;;;;;15.76;73.89;99488.34;5015540;28;19948;-69
2023/10/31 08:12:20;;;;;;;;;;;;;;;16.12;73.28;99486.31;5015593;28;20230;-69
2023/10/31 08:14:46;;;;;;;;;;;;;;;16.33;72.62;99482.28;5026200;28;19925;-68
2023/10/31 08:17:11;;;;;;;;;;;;;;;16.22;73.40;99482.06;5023635;28;20351;-69
2023/10/31 08:19:36;;;;;;;;;;;;;;;16.38;73.26;99484.78;5031281;28;19921;-69
2023/10/31 08:22:02;;;;;;;;;;;;;;;16.65;72.56;99479.25;5033707;28;20017;-69
2023/10/31 08:24:27;;;;;;;;;;;;;;;16.82;72.22;99469.41;5034899;28;19961;-68
2023/10/31 08:26:53;;;;;;;;;;;;;;;16.94;72.01;99474.06;5034746;28;19971;-70
2023/10/31 08:29:18;;;;;;;;;;;;;;;17.25;71.33;99463.69;5034748;28;19913;-69
2023/10/31 08:31:43;;;;;;;;;;;;;;;17.49;70.86;99469.25;5034960;28;19913;-69
2023/10/31 08:34:10;;;;;;;;;;;;;;;17.73;69.47;99470.78;5032306;28;20008;-69
2023/10/31 08:36:35;;;;;;;;;;;;;;;17.59;68.94;99462.13;5034127;28;19917;-69
2023/10/31 08:39:00;;;;;;;;;;;;;;;17.54;69.40;99468.91;5020599;28;19940;-69
2023/10/31 08:41:25;;;;;;;;;;;;;;;17.86;69.84;99456.41;5014492;28;20011;-69
2023/10/31 08:43:51;;;;;;;;;;;;;;;18.04;69.44;99456.63;5019085;28;19989;-69
2023/10/31 08:46:16;;;;;;;;;;;;;;;18.04;68.04;99454.63;5034281;28;19921;-71
2023/10/31 08:48:41;;;;;;;;;;;;;;;18.10;67.34;99455.09;5034344;28;19932;-72
2023/10/31 08:51:07;;;;;;;;;;;;;;;18.10;67.17;99450.28;5018667;28;19925;-70
2023/10/31 08:53:32;;;;;;;;;;;;;;;18.42;66.35;99442.50;5026229;28;20463;-71
2023/10/31 08:55:57;;;;;;;;;;;;;;;18.35;66.84;99432.75;5032749;28;19914;-71
2023/10/31 08:58:22;;;;;;;;;;;;;;;18.55;65.65;99432.50;5033967;28;19921;-71
2023/10/31 09:00:48;;;;;;;;;;;;;;;18.80;64.72;99414.91;5032869;28;19913;-71
2023/10/31 09:03:13;;;;;;;;;;;;;;;18.80;64.03;99406.41;5033724;28;19920;-71
2023/10/31 09:05:39;;;;;;;;;;;;;;;19.04;62.62;99409.84;5028949;28;19959;-71
2023/10/31 09:08:05;;;;;;;;;;;;;;;18.31;65.28;99406.41;5032287;28;19971;-71
2023/10/31 09:10:30;;;;;;;;;;;;;;;18.54;64.89;99405.38;5034037;28;19956;-70
2023/10/31 09:12:55;;;;;;;;;;;;;;;18.36;65.10;99400.41;5032093;28;19921;-70
2023/10/31 09:15:21;;;;;;;;;;;;;;;18.82;64.37;99392.66;5032889;28;19975;-71
2023/10/31 09:17:46;;;;;;;;;;;;;;;19.03;64.23;99388.38;5031861;28;19921;-70
2023/10/31 09:20:12;;;;;;;;;;;;;;;19.25;63.77;99380.03;5033578;28;19953;-71
2023/10/31 09:22:38;;;;;;;;;;;;;;;19.35;63.50;99377.22;5025383;28;19924;-71
2023/10/31 09:25:03;;;;;;;;;;;;;;;19.64;61.16;99373.69;5033254;28;19917;-71
2023/10/31 09:27:29;;;;;;;;;;;;;;;19.80;60.08;99366.88;5033212;28;19922;-69
2023/10/31 09:29:54;;;;;;;;;;;;;;;19.86;60.97;99354.75;5034039;28;19913;-69
2023/10/31 09:32:19;;;;;;;;;;;;;;;20.02;59.94;99360.06;5033834;28;19963;-70
2023/10/31 09:34:44;;;;;;;;;;;;;;;20.13;59.39;99353.59;5032772;28;19924;-69
2023/10/31 09:37:10;;;;;;;;;;;;;;;20.15;58.93;99345.47;5028950;28;19924;-70
2023/10/31 09:39:35;;;;;;;;;;;;;;;20.16;58.70;99341.44;5033232;28;19921;-70
2023/10/31 09:42:00;;;;;;;;;;;;;;;20.29;59.90;99350.38;5033312;28;19953;-69
2023/10/31 09:44:26;;;;;;;;;;;;;;;20.46;59.32;99340.22;5033715;28;19917;-70
2023/10/31 09:46:51;;;;;;;;;;;;;;;20.61;58.65;99327.63;5027019;28;19925;-70
2023/10/31 09:49:17;;;;;;;;;;;;;;;20.73;57.08;99317.88;5019071;28;20012;-70
2023/10/31 09:51:42;;;;;;;;;;;;;;;20.82;57.38;99323.19;5021374;28;19967;-70
2023/10/31 09:54:09;;;;;;;;;;;;;;;20.80;56.50;99313.41;5030093;28;20002;-72
2023/10/31 09:56:34;;;;;;;;;;;;;;;20.99;56.91;99306.47;5024547;28;19933;-72
2023/10/31 09:59:00;;;;;;;;;;;;;;;21.09;56.42;99299.94;5032208;28;20387;-73
2023/10/31 10:01:25;;;;;;;;;;;;;;;21.00;56.26;99285.38;5031536;28;19917;-73
2023/10/31 10:03:51;;;;;;;;;;;;;;;21.07;56.12;99288.19;5033213;28;20397;-72
2023/10/31 10:06:21;;;;;;;;;;;;;;;21.12;54.29;99281.28;5028742;28;19983;-72
2023/10/31 10:08:46;;;;;;;;;;;;;;;20.91;55.02;99274.41;5032791;28;19924;-73
2023/10/31 10:11:11;;;;;;;;;;;;;;;21.15;55.02;99274.75;5030838;28;20011;-73
2023/10/31 10:13:36;;;;;;;;;;;;;;;21.29;54.60;99279.56;5027495;28;19922;-70
2023/10/31 10:16:02;;;;;;;;;;;;;;;21.44;53.14;99281.13;5013099;28;19914;-69
2023/10/31 10:18:28;;;;;;;;;;;;;;;21.11;52.82;99273.97;5016751;28;19966;-71
2023/10/31 10:20:57;;;;;;;;;;;;;;;21.53;53.24;99271.31;5025087;28;19917;-72
2023/10/31 10:23:23;;;;;;;;;;;;;;;21.55;52.57;99266.84;5025055;28;19917;-70
2023/10/31 10:25:52;;;;;;;;;;;;;;;21.63;52.47;99261.09;5015908;28;19917;-70
2023/10/31 10:28:19;;;;;;;;;;;;;;;21.90;52.02;99258.50;5030239;28;19928;-69
2023/10/31 10:30:48;;;;;;;;;;;;;;;21.92;51.47;99252.41;5018639;28;20372;-69
2023/10/31 10:33:14;;;;;;;;;;;;;;;21.79;52.22;99254.94;5011374;28;19924;-72
2023/10/31 10:35:39;;;;;;;;;;;;;;;21.85;52.09;99254.06;5019440;28;20384;-69
2023/10/31 10:38:09;;;;;;;;;;;;;;;21.78;51.62;99259.84;5029577;28;19921;-70
2023/10/31 10:40:35;;;;;;;;;;;;;;;21.85;50.79;99253.28;5027101;28;19917;-69
2023/10/31 10:43:05;;;;;;;;;;;;;;;22.07;50.66;99242.53;5023556;28;19917;-71
2023/10/31 10:45:30;;;;;;;;;;;;;;;22.17;49.17;99246.50;5010908;28;19928;-72
2023/10/31 10:47:57;;;;;;;;;;;;;;;22.40;48.45;99240.19;5022823;28;19921;-71
2023/10/31 10:50:29;;;;;;;;;;;;;;;22.57;48.75;99234.75;5032279;28;20020;-71
2023/10/31 10:53:04;;;;;;;;;;;;;;;22.34;48.66;99233.31;5029638;28;19975;-70
2023/10/31 10:55:35;;;;;;;;;;;;;;;22.38;48.35;99222.69;5028165;28;19929;-72
2023/10/31 10:58:05;;;;;;;;;;;;;;;22.51;48.41;99208.75;5026746;28;19924;-71
2023/10/31 11:00:30;;;;;;;;;;;;;;;22.39;48.38;99212.13;5020032;28;19921;-74
2023/10/31 11:02:56;;;;;;;;;;;;;;;22.48;48.22;99208.75;5029418;28;19923;-73
2023/10/31 11:05:23;;;;;;;;;;;;;;;22.49;48.02;99210.41;5022689;28;19917;-73
2023/10/31 11:07:48;;;;;;;;;;;;;;;22.48;48.05;99203.06;5024998;28;20450;-73
2023/10/31 11:10:14;;;;;;;;;;;;;;;22.62;47.79;99194.38;5027164;28;19917;-73
2023/10/31 11:12:40;;;;;;;;;;;;;;;22.62;48.08;99190.75;5024714;28;20312;-73
2023/10/31 11:15:06;;;;;;;;;;;;;;;22.66;47.80;99183.78;5037377;28;20015;-73
2023/10/31 11:17:34;;;;;;;;;;;;;;;22.78;47.09;99184.44;5021685;28;19921;-70
2023/10/31 11:20:00;;;;;;;;;;;;;;;22.95;47.39;99182.63;5028030;28;19991;-75
2023/10/31 11:22:25;;;;;;;;;;;;;;;22.99;47.70;99174.81;5024905;28;20404;-72
2023/10/31 11:24:51;;;;;;;;;;;;;;;22.94;46.81;99175.28;5012264;28;19913;-72
2023/10/31 11:27:17;;;;;;;;;;;;;;;22.91;47.25;99168.41;5021242;28;19939;-73
2023/10/31 11:29:42;;;;;;;;;;;;;;;22.82;47.25;99166.06;5017238;28;20016;-73
2023/10/31 11:32:11;;;;;;;;;;;;;;;22.91;47.28;99159.84;5021677;28;21371;-73
2023/10/31 11:34:40;;;;;;;;;;;;;;;23.02;46.59;99156.84;5027247;28;20297;-73
2023/10/31 11:37:18;;;;;;;;;;;;;;;23.03;46.40;99147.03;5024287;28;20387;-73
2023/10/31 11:40:03;;;;;;;;;;;;;;;22.96;47.13;99152.88;5021152;28;20058;-73
2023/10/31 11:42:31;;;;;;;;;;;;;;;23.12;46.25;99135.91;5023462;28;19921;-73
2023/10/31 11:44:56;;;;;;;;;;;;;;;23.23;46.23;99127.22;5022282;28;20392;-73
2023/10/31 11:47:22;;;;;;;;;;;;;;;23.10;45.83;99127.00;5025885;28;19991;-73
2023/10/31 11:49:48;;;;;;;;;;;;;;;23.11;46.64;99125.75;5016413;28;19983;-72
2023/10/31 11:52:17;;;;;;;;;;;;;;;23.05;46.46;99121.78;5032746;28;20008;-73
2023/10/31 11:54:42;;;;;;;;;;;;;;;22.93;47.23;99116.66;5020219;28;19920;-73
2023/10/31 11:57:07;;;;;;;;;;;;;;;22.97;46.02;99121.06;5023927;28;20384;-73
2023/10/31 11:59:37;;;;;;;;;;;;;;;22.77;47.04;99118.06;5030094;28;19921;-73
2023/10/31 12:02:13;;;;;;;;;;;;;;;22.61;46.88;99109.34;5016140;28;20424;-73
2023/10/31 12:04:39;;;;;;;;;;;;;;;22.71;47.28;99111.25;5023761;28;19917;-73
2023/10/31 12:07:05;;;;;;;;;;;;;;;22.82;46.90;99111.91;5020710;28;19918;-70
2023/10/31 12:09:30;;;;;;;;;;;;;;;23.07;46.70;99092.81;5029015;28;19928;-71
2023/10/31 12:11:55;;;;;;;;;;;;;;;22.90;47.00;99086.94;5014994;28;19917;-72
2023/10/31 12:14:21;;;;;;;;;;;;;;;22.98;46.99;99087.66;5021458;28;20400;-72
2023/10/31 12:16:47;;;;;;;;;;;;;;;23.08;46.99;99085.88;5019799;28;19932;-75
2023/10/31 12:19:12;;;;;;;;;;;;;;;23.22;46.42;99082.00;5027317;28;19925;-74
2023/10/31 12:21:42;;;;;;;;;;;;;;;23.12;46.48;99081.72;5027079;28;19917;-73
2023/10/31 12:24:12;;;;;;;;;;;;;;;23.03;45.84;99072.91;5024109;28;19960;-73
2023/10/31 12:26:38;;;;;;;;;;;;;;;22.85;46.45;99078.88;5022022;28;20358;-72
2023/10/31 12:29:09;;;;;;;;;;;;;;;22.77;47.09;99089.56;5018958;28;19973;-72
2023/10/31 12:31:35;;;;;;;;;;;;;;;22.84;46.60;99072.38;5027597;28;20315;-72
2023/10/31 12:34:06;;;;;;;;;;;;;;;22.84;46.44;99060.97;5025075;28;19980;-75
2023/10/31 12:36:32;;;;;;;;;;;;;;;22.97;46.61;99057.53;5028553;28;20307;-75
2023/10/31 12:38:57;;;;;;;;;;;;;;;22.91;46.00;99064.94;5026032;28;20017;-75
2023/10/31 12:41:23;;;;;;;;;;;;;;;22.83;46.35;99059.34;5024451;28;20450;-75